createdAt,value
2018-07-24T00:01:16.221Z,7.33
2018-07-24T00:03:57.938Z,6.47
2018-07-24T00:06:39.651Z,6.47
2018-07-24T00:09:21.207Z,6.10
2018-07-24T00:12:01.998Z,6.53
2018-07-24T00:14:43.660Z,6.37
2018-07-24T00:17:25.970Z,6.20
2018-07-24T00:20:07.597Z,5.50
2018-07-24T00:22:48.716Z,6.10
2018-07-24T00:25:30.240Z,5.43
2018-07-24T00:28:11.986Z,5.53
2018-07-24T00:30:53.756Z,6.17
2018-07-24T00:33:35.327Z,5.57
2018-07-24T00:36:16.465Z,5.53
2018-07-24T00:38:57.760Z,5.13
2018-07-24T00:41:39.491Z,5.83
2018-07-24T00:44:20.282Z,5.00
2018-07-24T00:47:01.996Z,5.07
2018-07-24T00:49:43.689Z,6.00
2018-07-24T00:52:25.094Z,5.63
2018-07-24T00:55:06.921Z,5.20
2018-07-24T00:57:48.425Z,6.10
2018-07-24T01:00:29.975Z,5.93
2018-07-24T01:03:10.742Z,5.43
2018-07-24T01:05:52.504Z,5.37
2018-07-24T01:08:34.142Z,5.03
2018-07-24T01:11:15.940Z,6.20
2018-07-24T01:13:57.492Z,6.27
2018-07-24T01:16:40.273Z,5.27
2018-07-24T01:19:21.943Z,5.63
2018-07-24T01:22:04.049Z,5.60
2018-07-24T01:24:45.649Z,5.80
2018-07-24T01:27:26.639Z,6.23
2018-07-24T01:30:08.280Z,5.33
2018-07-24T01:32:49.631Z,5.93
2018-07-24T01:35:30.498Z,6.20
2018-07-24T01:38:12.045Z,5.50
2018-07-24T01:41:02.730Z,5.57
2018-07-24T01:43:43.595Z,6.97
2018-07-24T01:46:25.159Z,6.13
2018-07-24T01:49:06.725Z,5.90
2018-07-24T01:51:48.375Z,5.93
2018-07-24T01:54:30.087Z,5.70
2018-07-24T01:57:11.845Z,5.53
2018-07-24T01:59:53.513Z,5.50
2018-07-24T02:02:34.305Z,5.27
2018-07-24T02:05:19.914Z,5.50
2018-07-24T02:08:02.780Z,6.00
2018-07-24T02:10:44.355Z,6.33
2018-07-24T02:13:26.021Z,5.40
2018-07-24T02:16:07.509Z,5.90
2018-07-24T02:18:50.319Z,5.80
2018-07-24T02:21:31.788Z,5.77
2018-07-24T02:24:13.694Z,5.57
2018-07-24T02:26:57.560Z,5.33
2018-07-24T02:29:38.997Z,5.97
2018-07-24T02:32:20.619Z,6.47
2018-07-24T02:35:01.429Z,6.53
2018-07-24T02:37:42.965Z,6.30
2018-07-24T02:40:24.671Z,5.50
2018-07-24T02:43:05.945Z,5.67
2018-07-24T02:45:47.897Z,5.83
2018-07-24T02:48:29.420Z,6.80
2018-07-24T02:51:23.880Z,5.63
2018-07-24T02:54:05.442Z,5.30
2018-07-24T02:56:47.107Z,6.17
2018-07-24T02:59:28.633Z,5.70
2018-07-24T03:02:09.665Z,6.10
2018-07-24T03:04:52.569Z,6.27
2018-07-24T03:07:33.811Z,6.07
2018-07-24T03:10:15.487Z,6.60
2018-07-24T03:12:57.231Z,6.33
2018-07-24T03:15:39.867Z,7.00
2018-07-24T03:18:21.597Z,6.00
2018-07-24T03:21:02.422Z,6.73
2018-07-24T03:23:46.640Z,5.87
2018-07-24T03:26:27.806Z,6.40
2018-07-24T03:29:09.181Z,6.53
2018-07-24T03:31:49.967Z,6.43
2018-07-24T03:34:31.907Z,6.20
2018-07-24T03:37:13.035Z,6.13
2018-07-24T03:39:54.766Z,5.53
2018-07-24T03:42:36.483Z,5.80
2018-07-24T03:45:18.281Z,5.67
2018-07-24T03:47:59.702Z,6.07
2018-07-24T03:50:40.520Z,5.77
2018-07-24T03:53:22.526Z,6.03
2018-07-24T03:56:04.070Z,6.03
2018-07-24T03:58:45.599Z,5.60
2018-07-24T04:01:26.697Z,6.20
2018-07-24T04:04:07.845Z,5.47
2018-07-24T04:06:48.624Z,5.47
2018-07-24T04:09:29.376Z,6.30
2018-07-24T04:12:09.995Z,6.33
2018-07-24T04:14:50.945Z,5.97
2018-07-24T04:17:31.646Z,5.70
2018-07-24T04:20:13.415Z,6.40
2018-07-24T04:22:54.764Z,6.23
2018-07-24T04:25:36.532Z,7.83
2018-07-24T04:28:17.504Z,6.87
2018-07-24T04:30:59.120Z,6.97
2018-07-24T04:33:41.315Z,8.57
2018-07-24T04:36:22.340Z,8.53
2018-07-24T04:39:04.722Z,7.63
2018-07-24T04:41:45.657Z,7.17
2018-07-24T04:44:27.090Z,7.50
2018-07-24T04:47:08.727Z,9.00
2018-07-24T04:49:50.332Z,8.53
2018-07-24T04:52:32.002Z,7.50
2018-07-24T04:55:13.855Z,7.70
2018-07-24T04:57:55.446Z,7.37
2018-07-24T05:00:36.753Z,7.47
2018-07-24T05:03:17.989Z,7.43
2018-07-24T05:05:59.678Z,9.43
2018-07-24T05:08:41.365Z,8.63
2018-07-24T05:11:22.213Z,10.30
2018-07-24T05:14:03.049Z,7.67
2018-07-24T05:16:44.817Z,7.17
2018-07-24T05:19:26.455Z,9.03
2018-07-24T05:22:07.920Z,9.00
2018-07-24T05:24:49.604Z,10.10
2018-07-24T05:27:31.223Z,8.60
2018-07-24T05:30:12.910Z,8.90
2018-07-24T05:32:55.305Z,8.80
2018-07-24T05:35:37.959Z,8.40
2018-07-24T05:38:19.520Z,9.40
2018-07-24T05:41:01.758Z,7.47
2018-07-24T05:43:42.796Z,8.47
2018-07-24T05:46:25.316Z,6.80
2018-07-24T05:49:07.400Z,6.90
2018-07-24T05:51:48.382Z,6.87
2018-07-24T05:54:30.111Z,9.27
2018-07-24T05:57:12.519Z,9.17
2018-07-24T05:59:54.551Z,9.57
2018-07-24T06:02:37.898Z,12.57
2018-07-24T06:05:39.890Z,8.60
2018-07-24T06:08:21.342Z,8.93
2018-07-24T06:11:03.878Z,8.00
2018-07-24T06:13:45.695Z,8.03
2018-07-24T06:16:27.181Z,8.27
2018-07-24T06:19:08.849Z,6.60
2018-07-24T06:21:50.474Z,7.57
2018-07-24T06:24:32.701Z,6.27
2018-07-24T06:27:13.667Z,6.37
2018-07-24T06:29:56.249Z,6.63
2018-07-24T06:32:36.955Z,6.50
2018-07-24T06:35:18.989Z,6.23
2018-07-24T06:38:00.098Z,7.17
2018-07-24T06:40:42.645Z,6.57
2018-07-24T06:43:23.442Z,6.83
2018-07-24T06:46:04.954Z,7.50
2018-07-24T06:48:45.905Z,7.13
2018-07-24T06:51:28.052Z,6.93
2018-07-24T06:54:10.020Z,6.20
2018-07-24T06:56:50.949Z,6.87
2018-07-24T06:59:32.749Z,6.60
2018-07-24T07:02:15.176Z,6.50
2018-07-24T07:04:56.768Z,6.87
2018-07-24T07:07:38.190Z,6.30
2018-07-24T07:10:19.935Z,6.43
2018-07-24T07:13:01.522Z,6.97
2018-07-24T07:15:43.209Z,5.83
2018-07-24T07:18:24.916Z,5.90
2018-07-24T07:21:06.872Z,5.87
2018-07-24T07:23:48.326Z,6.10
2018-07-24T07:26:29.837Z,5.27
2018-07-24T07:29:11.449Z,5.67
2018-07-24T07:31:53.272Z,5.43
2018-07-24T07:34:34.658Z,5.43
2018-07-24T07:37:16.323Z,7.30
2018-07-24T07:39:59.133Z,5.10
2018-07-24T07:42:40.411Z,5.60
2018-07-24T07:45:22.165Z,5.80
2018-07-24T07:48:02.921Z,5.40
2018-07-24T07:50:44.541Z,4.70
2018-07-24T07:53:25.235Z,5.23
2018-07-24T07:56:07.017Z,5.03
2018-07-24T07:58:48.694Z,5.30
2018-07-24T08:01:29.352Z,5.10
2018-07-24T08:04:10.096Z,5.43
2018-07-24T08:06:51.647Z,5.00
2018-07-24T08:09:33.729Z,5.67
2018-07-24T08:12:15.018Z,6.00
2018-07-24T08:14:56.523Z,5.17
2018-07-24T08:17:37.260Z,5.00
2018-07-24T08:20:19.430Z,6.37
2018-07-24T08:23:01.747Z,5.87
2018-07-24T08:25:43.307Z,5.40
2018-07-24T08:28:24.101Z,5.93
2018-07-24T08:31:05.942Z,5.57
2018-07-24T08:33:47.372Z,5.37
2018-07-24T08:36:29.134Z,5.07
2018-07-24T08:39:12.265Z,5.43
2018-07-24T08:41:53.025Z,5.30
2018-07-24T08:44:34.798Z,4.90
2018-07-24T08:47:16.455Z,5.33
2018-07-24T08:49:58.009Z,5.47
2018-07-24T08:52:40.144Z,5.70
2018-07-24T08:55:21.967Z,6.10
2018-07-24T08:58:03.775Z,4.73
2018-07-24T09:00:44.845Z,5.70
2018-07-24T09:03:26.521Z,5.43
2018-07-24T09:06:08.523Z,5.33
2018-07-24T09:08:49.931Z,5.57
2018-07-24T09:11:31.672Z,5.43
2018-07-24T09:14:13.261Z,4.00
2018-07-24T09:16:54.782Z,4.63
2018-07-24T09:19:36.199Z,5.00
2018-07-24T09:22:17.762Z,5.17
2018-07-24T09:24:59.423Z,4.70
2018-07-24T09:27:41.055Z,4.60
2018-07-24T09:30:22.613Z,4.20
2018-07-24T09:33:04.298Z,5.10
2018-07-24T09:35:46.171Z,4.47
2018-07-24T09:38:27.514Z,4.53
2018-07-24T09:41:09.571Z,5.00
2018-07-24T09:43:50.697Z,4.10
2018-07-24T09:46:32.067Z,4.50
2018-07-24T09:49:13.738Z,4.33
2018-07-24T09:51:56.154Z,4.37
2018-07-24T09:54:37.036Z,4.37
2018-07-24T09:57:18.463Z,4.70
2018-07-24T09:59:59.949Z,5.03
2018-07-24T10:02:41.668Z,4.23
2018-07-24T10:05:23.459Z,4.47
2018-07-24T10:08:05.117Z,3.43
2018-07-24T10:10:46.732Z,4.60
2018-07-24T10:13:28.855Z,4.63
2018-07-24T10:16:10.030Z,3.90
2018-07-24T10:18:51.787Z,3.40
2018-07-24T10:21:33.396Z,4.57
2018-07-24T10:24:14.279Z,3.23
2018-07-24T10:26:55.810Z,4.30
2018-07-24T10:29:37.402Z,3.27
2018-07-24T10:32:19.125Z,4.00
2018-07-24T10:35:00.608Z,3.10
2018-07-24T10:37:41.299Z,3.70
2018-07-24T10:40:23.553Z,3.70
2018-07-24T10:43:04.638Z,3.60
2018-07-24T10:45:46.262Z,4.70
2018-07-24T10:48:29.268Z,3.90
2018-07-24T10:51:10.549Z,3.60
2018-07-24T10:53:52.458Z,2.90
2018-07-24T10:56:34.329Z,3.27
2018-07-24T10:59:15.823Z,4.90
2018-07-24T11:01:57.468Z,3.20
2018-07-24T11:04:39.175Z,3.50
2018-07-24T11:07:20.282Z,4.33
2018-07-24T11:10:01.570Z,3.30
2018-07-24T11:12:42.275Z,3.60
2018-07-24T11:15:23.744Z,3.23
2018-07-24T11:18:04.468Z,3.77
2018-07-24T11:20:46.133Z,4.00
2018-07-24T11:23:26.776Z,4.10
2018-07-24T11:26:07.563Z,3.50
2018-07-24T11:28:49.135Z,3.60
2018-07-24T11:31:31.100Z,3.50
2018-07-24T11:34:12.059Z,3.77
2018-07-24T11:36:53.656Z,3.90
2018-07-24T11:39:35.151Z,4.07
2018-07-24T11:42:16.724Z,3.50
2018-07-24T11:44:58.496Z,3.37
2018-07-24T11:47:40.100Z,3.03
2018-07-24T11:50:21.786Z,3.53
2018-07-24T11:53:03.485Z,4.53
2018-07-24T11:55:45.122Z,3.23
2018-07-24T11:58:26.992Z,3.60
2018-07-24T12:01:08.303Z,2.87
2018-07-24T12:03:49.959Z,3.27
2018-07-24T12:06:31.569Z,3.33
2018-07-24T12:09:14.055Z,3.13
2018-07-24T12:11:55.319Z,4.20
2018-07-24T12:14:36.376Z,2.97
2018-07-24T12:17:17.204Z,3.70
2018-07-24T12:19:58.806Z,3.80
2018-07-24T12:22:40.806Z,3.50
2018-07-24T12:25:22.154Z,3.37
2018-07-24T12:28:03.605Z,3.60
2018-07-24T12:30:44.526Z,3.53
2018-07-24T12:33:25.370Z,3.43
2018-07-24T12:36:06.232Z,3.50
2018-07-24T12:38:47.783Z,3.60
2018-07-24T12:41:29.390Z,3.50
2018-07-24T12:44:10.931Z,3.20
2018-07-24T12:46:53.058Z,3.40
2018-07-24T12:49:34.235Z,4.03
2018-07-24T12:52:15.458Z,3.07
2018-07-24T12:54:56.830Z,3.60
2018-07-24T12:57:38.457Z,3.47
2018-07-24T13:00:19.186Z,3.10
2018-07-24T13:03:01.761Z,4.10
2018-07-24T13:05:42.493Z,3.97
2018-07-24T13:08:24.601Z,3.40
2018-07-24T13:11:06.232Z,3.40
2018-07-24T13:13:48.387Z,3.20
2018-07-24T13:16:29.390Z,4.17
2018-07-24T13:19:11.623Z,3.47
2018-07-24T13:21:53.258Z,3.00
2018-07-24T13:24:34.341Z,3.33
2018-07-24T13:27:16.100Z,3.33
2018-07-24T13:29:58.164Z,3.70
2018-07-24T13:32:39.359Z,4.10
2018-07-24T13:35:20.975Z,3.57
2018-07-24T13:38:02.739Z,3.57
2018-07-24T13:40:44.288Z,3.33
2018-07-24T13:43:26.429Z,3.77
2018-07-24T13:46:07.848Z,3.80
2018-07-24T13:48:49.555Z,3.90
2018-07-24T13:51:31.648Z,2.70
2018-07-24T13:54:12.962Z,3.80
2018-07-24T13:56:54.408Z,2.97
2018-07-24T13:59:35.239Z,3.20
2018-07-24T14:02:16.811Z,2.90
2018-07-24T14:04:58.475Z,3.60
2018-07-24T14:07:40.319Z,3.57
2018-07-24T14:10:22.001Z,3.90
2018-07-24T14:13:03.424Z,2.90
2018-07-24T14:15:44.966Z,3.73
2018-07-24T14:18:26.668Z,4.07
2018-07-24T14:21:08.192Z,3.53
2018-07-24T14:23:49.670Z,3.70
2018-07-24T14:26:31.570Z,4.53
2018-07-24T14:29:13.550Z,3.23
2018-07-24T14:31:54.615Z,3.73
2018-07-24T14:34:36.390Z,3.40
2018-07-24T14:37:17.993Z,3.73
2018-07-24T14:39:59.329Z,3.87
2018-07-24T14:42:41.005Z,4.03
2018-07-24T14:45:22.839Z,3.27
2018-07-24T14:48:04.520Z,3.80
2018-07-24T14:50:46.293Z,3.70
2018-07-24T14:53:27.935Z,3.70
2018-07-24T14:56:09.795Z,4.40
2018-07-24T14:58:51.402Z,4.10
2018-07-24T15:01:33.121Z,3.30
2018-07-24T15:04:14.674Z,3.23
2018-07-24T15:06:56.433Z,3.10
2018-07-24T15:09:38.184Z,3.20
2018-07-24T15:12:20.329Z,3.80
2018-07-24T15:15:01.920Z,3.10
2018-07-24T15:17:43.508Z,4.10
2018-07-24T15:20:24.825Z,3.43
2018-07-24T15:23:05.576Z,3.70
2018-07-24T15:25:47.119Z,4.10
2018-07-24T15:28:28.745Z,3.40
2018-07-24T15:31:10.843Z,3.80
2018-07-24T15:33:51.984Z,3.97
2018-07-24T15:36:33.569Z,4.17
2018-07-24T15:39:15.398Z,4.07
2018-07-24T15:41:56.717Z,3.33
2018-07-24T15:44:37.915Z,3.17
2018-07-24T15:47:19.207Z,4.00
2018-07-24T15:50:04.757Z,3.73
2018-07-24T15:52:45.623Z,4.20
2018-07-24T15:55:27.295Z,4.13
2018-07-24T15:58:08.980Z,3.97
2018-07-24T16:00:50.717Z,3.23
2018-07-24T16:03:32.540Z,3.27
2018-07-24T16:06:14.124Z,3.30
2018-07-24T16:08:55.714Z,3.40
2018-07-24T16:11:36.420Z,3.53
2018-07-24T16:14:17.376Z,3.40
2018-07-24T16:16:57.977Z,4.10
2018-07-24T16:19:39.786Z,4.20
2018-07-24T16:22:21.666Z,3.37
2018-07-24T16:25:04.244Z,3.73
2018-07-24T16:27:45.910Z,2.80
2018-07-24T16:30:27.506Z,3.37
2018-07-24T16:33:08.991Z,4.30
2018-07-24T16:35:50.716Z,3.30
2018-07-24T16:38:32.471Z,3.13
2018-07-24T16:41:14.004Z,2.97
2018-07-24T16:43:56.045Z,3.17
2018-07-24T16:46:37.536Z,3.70
2018-07-24T16:49:19.160Z,3.60
2018-07-24T16:52:01.295Z,3.03
2018-07-24T16:54:42.596Z,3.60
2018-07-24T16:57:24.417Z,3.77
2018-07-24T17:00:06.162Z,3.57
2018-07-24T17:02:46.927Z,2.93
2018-07-24T17:05:28.591Z,3.20
2018-07-24T17:08:10.327Z,3.20
2018-07-24T17:10:52.103Z,3.47
2018-07-24T17:13:33.748Z,2.90
2018-07-24T17:16:15.533Z,3.93
2018-07-24T17:18:57.296Z,4.00
2018-07-24T17:21:38.851Z,3.60
2018-07-24T17:24:20.551Z,3.10
2018-07-24T17:27:02.171Z,3.53
2018-07-24T17:29:43.083Z,4.73
2018-07-24T17:32:24.679Z,3.53
2018-07-24T17:35:06.242Z,4.10
2018-07-24T17:37:47.800Z,3.83
2018-07-24T17:40:29.572Z,4.10
2018-07-24T17:43:11.101Z,4.50
2018-07-24T17:45:54.145Z,4.47
2018-07-24T17:48:35.905Z,4.17
2018-07-24T17:51:17.641Z,4.43
2018-07-24T17:53:59.499Z,4.00
2018-07-24T17:56:41.439Z,4.50
2018-07-24T17:59:23.256Z,5.30
2018-07-24T18:02:04.758Z,4.47
2018-07-24T18:04:46.426Z,5.47
2018-07-24T18:07:28.197Z,5.20
2018-07-24T18:10:09.879Z,5.57
2018-07-24T18:12:51.641Z,4.90
2018-07-24T18:15:33.271Z,4.90
2018-07-24T18:18:14.622Z,5.20
2018-07-24T18:20:55.771Z,4.60
2018-07-24T18:23:38.446Z,4.70
2018-07-24T18:26:20.102Z,4.47
2018-07-24T18:29:00.994Z,5.33
2018-07-24T18:31:42.888Z,5.60
2018-07-24T18:34:24.140Z,5.80
2018-07-24T18:37:05.760Z,4.83
2018-07-24T18:39:47.150Z,5.47
2018-07-24T18:42:29.348Z,4.27
2018-07-24T18:45:10.397Z,4.30
2018-07-24T18:47:52.169Z,4.77
2018-07-24T18:50:33.599Z,4.30
2018-07-24T18:53:15.956Z,4.00
2018-07-24T18:55:57.099Z,4.27
2018-07-24T18:58:38.666Z,4.87
2018-07-24T19:01:20.068Z,4.60
2018-07-24T19:04:01.743Z,4.50
2018-07-24T19:06:43.086Z,4.30
2018-07-24T19:09:24.631Z,4.40
2018-07-24T19:12:05.898Z,4.20
2018-07-24T19:14:47.513Z,4.03
2018-07-24T19:17:29.290Z,4.60
2018-07-24T19:20:10.011Z,3.93
2018-07-24T19:22:50.747Z,4.30
2018-07-24T19:25:32.453Z,4.03
2018-07-24T19:28:14.128Z,3.93
2018-07-24T19:30:55.746Z,4.00
2018-07-24T19:33:37.891Z,4.40
2018-07-24T19:36:18.856Z,4.20
2018-07-24T19:39:00.551Z,4.10
2018-07-24T19:41:42.222Z,4.20
2018-07-24T19:44:23.045Z,4.40
2018-07-24T19:47:04.704Z,4.30
2018-07-24T19:49:46.816Z,9.80
2018-07-24T19:52:28.259Z,8.17
2018-07-24T19:55:09.936Z,5.50
2018-07-24T19:57:52.058Z,5.10
2018-07-24T20:00:33.575Z,5.50
2018-07-24T20:03:16.346Z,4.40
2018-07-24T20:05:57.803Z,4.30
2018-07-24T20:08:38.541Z,5.90
2018-07-24T20:11:20.074Z,5.23
2018-07-24T20:14:01.781Z,4.40
2018-07-24T20:16:43.649Z,4.57
2018-07-24T20:19:25.734Z,4.20
2018-07-24T20:22:07.735Z,4.00
2018-07-24T20:24:49.610Z,4.20
2018-07-24T20:27:30.960Z,4.30
2018-07-24T20:30:12.958Z,4.70
2018-07-24T20:32:54.114Z,5.27
2018-07-24T20:35:34.901Z,4.77
2018-07-24T20:38:16.563Z,4.63
2018-07-24T20:40:58.095Z,4.60
2018-07-24T20:43:39.755Z,4.70
2018-07-24T20:46:20.640Z,5.13
2018-07-24T20:49:02.092Z,5.20
2018-07-24T20:51:43.828Z,4.53
2018-07-24T20:54:26.207Z,4.90
2018-07-24T20:57:06.981Z,4.83
2018-07-24T20:59:48.774Z,4.50
2018-07-24T21:02:30.415Z,5.40
2018-07-24T21:05:11.726Z,5.87
2018-07-24T21:07:52.584Z,5.47
2018-07-24T21:10:34.265Z,4.50
2018-07-24T21:13:15.170Z,4.67
2018-07-24T21:15:56.767Z,4.60
2018-07-24T21:18:38.060Z,4.70
2018-07-24T21:21:19.368Z,4.27
2018-07-24T21:24:01.675Z,5.47
2018-07-24T21:26:42.592Z,4.87
2018-07-24T21:29:24.488Z,4.43
2018-07-24T21:32:06.193Z,4.10
2018-07-24T21:34:47.698Z,4.23
2018-07-24T21:37:29.366Z,5.10
2018-07-24T21:40:10.882Z,5.13
2018-07-24T21:42:51.908Z,4.87
2018-07-24T21:45:33.202Z,4.83
2018-07-24T21:48:14.237Z,4.20
2018-07-24T21:50:55.721Z,4.57
2018-07-24T21:53:37.224Z,3.50
2018-07-24T21:56:18.117Z,4.43
2018-07-24T21:58:59.833Z,4.30
2018-07-24T22:01:41.331Z,4.60
2018-07-24T22:04:22.925Z,4.37
2018-07-24T22:07:04.306Z,4.57
2018-07-24T22:09:45.226Z,4.30
2018-07-24T22:12:26.898Z,4.77
2018-07-24T22:15:16.067Z,4.00
2018-07-24T22:17:59.125Z,4.10
2018-07-24T22:20:40.092Z,3.90
2018-07-24T22:23:22.057Z,4.10
2018-07-24T22:26:12.183Z,4.20
2018-07-24T22:31:40.514Z,3.93
2018-07-24T22:34:22.298Z,3.80
2018-07-24T22:37:06.108Z,3.87
2018-07-24T22:39:48.012Z,4.03
2018-07-24T22:42:28.713Z,4.60
2018-07-24T22:45:10.654Z,4.30
2018-07-24T22:47:51.927Z,4.40
2018-07-24T22:50:33.499Z,4.60
2018-07-24T22:53:15.157Z,4.27
2018-07-24T22:55:56.992Z,3.97
2018-07-24T22:58:45.721Z,4.10
2018-07-24T23:01:27.204Z,4.40
2018-07-24T23:04:09.679Z,4.30
2018-07-24T23:06:52.538Z,4.00
2018-07-24T23:09:33.881Z,4.03
2018-07-24T23:12:22.705Z,3.87
2018-07-24T23:15:04.517Z,4.43
2018-07-24T23:17:49.498Z,3.97
2018-07-24T23:20:30.791Z,4.40
2018-07-24T23:23:13.291Z,3.70
2018-07-24T23:25:54.218Z,3.80
2018-07-24T23:28:39.384Z,3.90
2018-07-24T23:31:20.807Z,4.70
2018-07-24T23:34:01.931Z,3.60
2018-07-24T23:36:42.653Z,3.90
2018-07-24T23:39:23.458Z,4.13
2018-07-24T23:42:05.175Z,3.20
2018-07-24T23:44:46.669Z,3.70
2018-07-24T23:47:28.375Z,3.43
2018-07-24T23:50:10.033Z,3.87
2018-07-24T23:52:51.588Z,3.67
2018-07-24T23:55:34.707Z,3.37
2018-07-24T23:58:16.201Z,3.87
